createdAt,value
2023-04-02T00:00:57.387Z,99433.06
2023-04-02T00:06:45.137Z,99438.23
2023-04-02T00:11:54.862Z,99441.24
2023-04-02T00:16:59.963Z,99444.08
2023-04-02T00:22:07.619Z,99449.04
2023-04-02T00:27:14.947Z,99459.98
2023-04-02T00:32:23.322Z,99466.19
2023-04-02T00:37:39.101Z,99471.42
2023-04-02T00:42:44.951Z,99477.29
2023-04-02T00:47:47.926Z,99479.88
2023-04-02T00:52:54.412Z,99477.64
2023-04-02T00:57:58.688Z,99482.52
2023-04-02T01:03:16.869Z,99490.65
2023-04-02T01:08:43.349Z,99497.31
2023-04-02T01:14:03.347Z,99505.58
2023-04-02T01:19:21.513Z,99506.52
2023-04-02T01:24:30.291Z,99515.61
2023-04-02T01:29:39.716Z,99520.96
2023-04-02T01:34:44.963Z,99524.74
2023-04-02T01:40:06.823Z,99521.87
2023-04-02T01:45:11.463Z,99526.76
2023-04-02T01:50:20.474Z,99531.52
2023-04-02T01:55:35.248Z,99535.23
2023-04-02T02:00:48.729Z,99543.80
2023-04-02T02:05:51.879Z,99547.73
2023-04-02T02:10:54.758Z,99551.89
2023-04-02T02:16:02.119Z,99558.26
2023-04-02T02:21:09.781Z,99565.94
2023-04-02T02:26:14.735Z,99568.89
2023-04-02T02:31:22.913Z,99571.23
2023-04-02T02:36:40.740Z,99577.57
2023-04-02T02:41:46.595Z,99583.68
2023-04-02T02:46:55.950Z,99586.19
2023-04-02T02:52:11.746Z,99590.50
2023-04-02T02:57:20.847Z,99594.41
2023-04-02T03:02:26.511Z,99595.86
2023-04-02T03:07:31.208Z,99600.84
2023-04-02T03:12:47.634Z,99608.48
2023-04-02T03:18:06.646Z,99617.81
2023-04-02T03:23:12.691Z,99627.12
2023-04-02T03:28:27.503Z,99634.75
2023-04-02T03:33:36.118Z,99645.37
2023-04-02T03:38:47.314Z,99652.70
2023-04-02T03:43:55.508Z,99660.34
2023-04-02T03:49:06.949Z,99668.59
2023-04-02T03:54:16.700Z,99673.95
2023-04-02T03:59:32.924Z,99685.25
2023-04-02T04:04:40.980Z,99692.80
2023-04-02T04:09:47.237Z,99700.87
2023-04-02T04:14:58.646Z,99710.52
2023-04-02T04:20:36.877Z,99718.44
2023-04-02T04:25:40.459Z,99719.96
2023-04-02T04:31:04.318Z,99726.52
2023-04-02T04:36:30.034Z,99733.69
2023-04-02T04:41:39.432Z,99740.81
2023-04-02T04:46:54.472Z,99748.83
2023-04-02T04:52:10.389Z,99763.27
2023-04-02T04:57:34.788Z,99767.70
2023-04-02T05:02:45.967Z,99773.14
2023-04-02T05:08:00.931Z,99778.77
2023-04-02T05:13:21.598Z,99784.35
2023-04-02T05:18:56.831Z,99794.70
2023-04-02T05:24:17.373Z,99801.09
2023-04-02T05:29:30.789Z,99807.14
2023-04-02T05:34:37.699Z,99811.22
2023-04-02T05:39:46.439Z,99812.41
2023-04-02T05:44:58.181Z,99818.42
2023-04-02T05:50:08.276Z,99826.30
2023-04-02T05:55:17.403Z,99831.31
2023-04-02T06:00:43.964Z,99834.92
2023-04-02T06:05:47.072Z,99842.35
2023-04-02T06:11:05.113Z,99849.71
2023-04-02T06:16:10.704Z,99854.02
2023-04-02T06:21:17.700Z,99858.06
2023-04-02T06:26:32.884Z,99868.25
2023-04-02T06:31:48.317Z,99876.11
2023-04-02T06:36:57.593Z,99880.86
2023-04-02T06:42:05.628Z,99886.43
2023-04-02T06:47:32.766Z,99894.52
2023-04-02T06:52:58.872Z,99899.06
2023-04-02T06:58:01.898Z,99904.33
2023-04-02T07:03:16.064Z,99909.52
2023-04-02T07:08:19.401Z,99913.63
2023-04-02T07:13:23.789Z,99925.48
2023-04-02T07:18:33.577Z,99942.10
2023-04-02T07:23:36.887Z,99946.73
2023-04-02T07:28:39.903Z,99950.98
2023-04-02T07:33:42.794Z,99959.41
2023-04-02T07:38:46.504Z,99966.00
2023-04-02T07:43:49.433Z,99974.30
2023-04-02T07:48:52.242Z,99979.16
2023-04-02T07:53:56.540Z,99980.06
2023-04-02T07:58:59.469Z,99987.71
2023-04-02T08:04:05.155Z,99991.31
2023-04-02T08:09:08.143Z,99996.20
2023-04-02T08:14:11.677Z,100009.22
2023-04-02T08:19:14.986Z,100013.35
2023-04-02T08:24:21.684Z,100023.15
2023-04-02T08:29:24.767Z,100035.39
2023-04-02T08:34:28.609Z,100041.15
2023-04-02T08:39:33.474Z,100046.98
2023-04-02T08:44:46.162Z,100050.18
2023-04-02T08:49:51.554Z,100055.73
2023-04-02T08:54:57.143Z,100059.14
2023-04-02T09:00:10.877Z,100066.13
2023-04-02T09:05:28.654Z,100075.68
2023-04-02T09:10:42.709Z,100085.83
2023-04-02T09:15:46.027Z,100093.75
2023-04-02T09:20:50.345Z,100101.80
2023-04-02T09:26:04.173Z,100110.91
2023-04-02T09:31:25.300Z,100123.35
2023-04-02T09:36:40.331Z,100135.05
2023-04-02T09:41:48.105Z,100136.66
2023-04-02T09:47:04.178Z,100144.73
2023-04-02T09:52:21.400Z,100148.27
2023-04-02T09:57:27.841Z,100160.15
2023-04-02T10:02:32.352Z,100164.27
2023-04-02T10:07:49.473Z,100171.89
2023-04-02T10:13:00.362Z,100181.34
2023-04-02T10:18:13.606Z,100185.36
2023-04-02T10:23:22.161Z,100189.61
2023-04-02T10:28:45.326Z,100197.77
2023-04-02T10:33:54.986Z,100198.77
2023-04-02T10:39:05.170Z,100209.56
2023-04-02T10:44:27.114Z,100213.58
2023-04-02T10:49:47.143Z,100215.09
2023-04-02T10:54:57.374Z,100226.61
2023-04-02T11:00:11.166Z,100235.48
2023-04-02T11:05:29.315Z,100240.63
2023-04-02T11:10:39.910Z,100250.76
2023-04-02T11:15:43.036Z,100262.25
2023-04-02T11:20:48.782Z,100267.48
2023-04-02T11:25:51.786Z,100272.54
2023-04-02T11:30:56.740Z,100273.72
2023-04-02T11:35:59.992Z,100281.33
2023-04-02T11:41:02.958Z,100292.30
2023-04-02T11:46:45.722Z,100298.92
2023-04-02T11:51:54.352Z,100307.19
2023-04-02T11:57:47.516Z,100308.79
2023-04-02T12:02:53.516Z,100319.51
2023-04-02T12:08:27.829Z,100329.05
2023-04-02T12:13:40.076Z,100335.67
2023-04-02T12:18:47.157Z,100342.80
2023-04-02T12:23:54.210Z,100346.40
2023-04-02T12:29:16.105Z,100353.66
2023-04-02T12:34:21.567Z,100361.42
2023-04-02T12:39:26.734Z,100354.52
2023-04-02T12:44:31.470Z,100362.79
2023-04-02T12:49:40.315Z,100366.10
2023-04-02T12:54:55.695Z,100374.20
2023-04-02T13:00:06.446Z,100379.98
2023-04-02T13:05:10.213Z,100390.59
2023-04-02T13:10:26.241Z,100391.45
2023-04-02T13:15:34.578Z,100399.02
2023-04-02T13:20:40.261Z,100402.21
2023-04-02T13:25:44.126Z,100413.48
2023-04-02T13:30:47.480Z,100424.73
2023-04-02T13:35:50.735Z,100422.94
2023-04-02T13:40:53.802Z,100432.27
2023-04-02T13:46:00.038Z,100438.53
2023-04-02T13:51:02.996Z,100438.05
2023-04-02T13:56:08.559Z,100442.69
2023-04-02T14:01:12.308Z,100439.63
2023-04-02T14:06:30.338Z,100443.30
2023-04-02T14:11:42.767Z,100449.25
2023-04-02T14:16:45.715Z,100456.19
2023-04-02T14:22:06.910Z,100458.14
2023-04-02T14:27:29.983Z,100464.88
2023-04-02T14:32:59.306Z,100474.58
2023-04-02T14:38:21.666Z,100479.80
2023-04-02T14:43:39.724Z,100484.11
2023-04-02T14:49:00.563Z,100480.83
2023-04-02T14:54:37.859Z,100482.14
2023-04-02T15:00:13.547Z,100489.70
2023-04-02T15:05:35.788Z,100496.20
2023-04-02T15:10:49.241Z,100500.63
2023-04-02T15:15:59.735Z,100510.73
2023-04-02T15:21:25.784Z,100517.70
2023-04-02T15:26:28.571Z,100519.48
2023-04-02T15:31:34.445Z,100527.80
2023-04-02T15:37:01.118Z,100532.30
2023-04-02T15:42:35.598Z,100540.83
2023-04-02T15:47:46.906Z,100550.67
2023-04-02T15:53:04.918Z,100559.52
2023-04-02T15:58:47.018Z,100559.08
2023-04-02T16:04:24.405Z,100566.53
2023-04-02T16:09:30.970Z,100575.71
2023-04-02T16:14:46.962Z,100583.14
2023-04-02T16:19:54.698Z,100596.04
2023-04-02T16:25:03.028Z,100603.59
2023-04-02T16:30:27.203Z,100609.54
2023-04-02T16:36:01.527Z,100621.46
2023-04-02T16:41:13.155Z,100629.45
2023-04-02T16:47:01.547Z,100633.27
2023-04-02T16:52:04.531Z,100647.34
2023-04-02T16:57:19.869Z,100654.93
2023-04-02T17:03:00.873Z,100665.68
2023-04-02T17:08:10.173Z,100670.36
2023-04-02T17:13:41.348Z,100680.42
2023-04-02T17:18:48.345Z,100690.27
2023-04-02T17:23:56.702Z,100698.73
2023-04-02T17:29:07.059Z,100711.09
2023-04-02T17:34:16.222Z,100720.70
2023-04-02T17:39:25.759Z,100731.46
2023-04-02T17:44:47.615Z,100742.85
2023-04-02T17:50:31.893Z,100752.63
2023-04-02T17:56:07.136Z,100759.26
2023-04-02T18:01:13.593Z,100769.96
2023-04-02T18:06:39.368Z,100778.91
2023-04-02T18:11:48.336Z,100787.82
2023-04-02T18:17:36.401Z,100793.67
2023-04-02T18:23:12.472Z,100805.85
2023-04-02T18:28:33.914Z,100814.09
2023-04-02T18:34:03.990Z,100819.52
2023-04-02T18:39:16.988Z,100825.98
2023-04-02T18:44:41.925Z,100835.16
2023-04-02T18:49:54.233Z,100843.51
2023-04-02T18:55:07.580Z,100849.27
2023-04-02T19:00:30.358Z,100859.48
2023-04-02T19:06:13.090Z,100860.63
2023-04-02T19:11:20.501Z,100865.51
2023-04-02T19:16:35.998Z,100873.81
2023-04-02T19:22:01.125Z,100875.05
2023-04-02T19:27:25.962Z,100882.83
2023-04-02T19:33:10.222Z,100887.87
2023-04-02T19:38:13.121Z,100896.52
2023-04-02T19:43:16.169Z,100903.43
2023-04-02T19:48:22.209Z,100916.84
2023-04-02T19:53:25.213Z,100924.44
2023-04-02T19:58:28.224Z,100926.52
2023-04-02T20:03:31.742Z,100928.60
2023-04-02T20:08:36.384Z,100936.48
2023-04-02T20:13:39.265Z,100937.36
2023-04-02T20:18:42.501Z,100940.83
2023-04-02T20:23:45.768Z,100950.95
2023-04-02T20:28:48.864Z,100959.36
2023-04-02T20:33:56.667Z,100964.17
2023-04-02T20:38:59.660Z,100968.81
2023-04-02T20:44:03.177Z,100976.34
2023-04-02T20:49:06.073Z,100984.05
2023-04-02T20:54:08.986Z,100988.85
2023-04-02T20:59:12.190Z,100992.80
2023-04-02T21:04:15.200Z,100991.80
2023-04-02T21:09:19.858Z,100998.15
2023-04-02T21:14:22.748Z,101003.98
2023-04-02T21:19:28.008Z,101010.98
2023-04-02T21:24:30.908Z,101014.42
2023-04-02T21:29:33.811Z,101019.20
2023-04-02T21:34:36.813Z,101026.23
2023-04-02T21:39:39.717Z,101026.40
2023-04-02T21:44:42.572Z,101029.65
2023-04-02T21:49:45.427Z,101039.41
2023-04-02T21:54:48.338Z,101039.58
2023-04-02T21:59:51.233Z,101039.76
2023-04-02T22:04:54.441Z,101044.38
2023-04-02T22:09:57.356Z,101045.04
2023-04-02T22:15:00.678Z,101048.96
2023-04-02T22:20:05.129Z,101055.61
2023-04-02T22:25:09.110Z,101061.77
2023-04-02T22:30:12.741Z,101063.45
2023-04-02T22:35:17.497Z,101062.25
2023-04-02T22:40:20.404Z,101061.21
2023-04-02T22:45:23.407Z,101066.18
2023-04-02T22:50:26.617Z,101072.17
2023-04-02T22:55:29.522Z,101076.78
2023-04-02T23:00:32.425Z,101076.94
2023-04-02T23:05:35.333Z,101077.94
2023-04-02T23:10:38.415Z,101083.05
2023-04-02T23:15:44.656Z,101087.84
2023-04-02T23:20:47.635Z,101088.52
2023-04-02T23:25:50.534Z,101088.17
2023-04-02T23:30:53.651Z,101090.23
2023-04-02T23:35:56.693Z,101090.71
2023-04-02T23:40:59.659Z,101091.39
2023-04-02T23:46:02.870Z,101092.39
2023-04-02T23:51:07.357Z,101090.66
2023-04-02T23:56:10.467Z,101096.30
